createdAt,value
2023-02-06T00:01:30.524Z,8.73
2023-02-06T00:03:57.905Z,8.85
2023-02-06T00:06:24.930Z,8.55
2023-02-06T00:08:52.115Z,9.02
2023-02-06T00:11:19.401Z,12.82
2023-02-06T00:13:46.773Z,9.90
2023-02-06T00:16:25.496Z,8.13
2023-02-06T00:18:53.823Z,4.93
2023-02-06T00:21:22.140Z,8.85
2023-02-06T00:23:50.073Z,10.80
2023-02-06T00:26:17.651Z,7.47
2023-02-06T00:28:45.917Z,7.70
2023-02-06T00:31:13.932Z,8.27
2023-02-06T00:33:41.443Z,8.93
2023-02-06T00:36:09.165Z,8.65
2023-02-06T00:38:37.527Z,8.60
2023-02-06T00:41:04.888Z,8.80
2023-02-06T00:43:32.187Z,10.77
2023-02-06T00:45:59.420Z,9.45
2023-02-06T00:48:26.845Z,7.95
2023-02-06T00:50:54.467Z,9.63
2023-02-06T00:53:21.634Z,9.88
2023-02-06T00:55:48.629Z,9.45
2023-02-06T00:58:15.712Z,10.02
2023-02-06T01:00:44.168Z,8.40
2023-02-06T01:03:11.753Z,8.85
2023-02-06T01:05:38.996Z,11.48
2023-02-06T01:08:06.158Z,10.60
2023-02-06T01:10:33.137Z,9.77
2023-02-06T01:13:00.489Z,8.57
2023-02-06T01:15:27.523Z,10.48
2023-02-06T01:17:54.475Z,9.35
2023-02-06T01:20:23.075Z,11.63
2023-02-06T01:22:50.325Z,8.70
2023-02-06T01:25:17.416Z,10.07
2023-02-06T01:27:44.800Z,11.32
2023-02-06T01:30:12.310Z,10.15
2023-02-06T01:32:41.338Z,8.60
2023-02-06T01:35:10.640Z,12.32
2023-02-06T01:37:39.248Z,9.27
2023-02-06T01:40:14.016Z,10.10
2023-02-06T01:42:41.151Z,8.95
2023-02-06T01:45:26.414Z,10.55
2023-02-06T01:48:02.289Z,10.02
2023-02-06T01:50:32.500Z,10.88
2023-02-06T01:53:00.207Z,13.23
2023-02-06T01:55:27.648Z,11.75
2023-02-06T01:57:54.867Z,11.50
2023-02-06T02:00:21.958Z,12.30
2023-02-06T02:02:49.988Z,11.98
2023-02-06T02:05:19.178Z,9.85
2023-02-06T02:08:01.315Z,9.55
2023-02-06T02:10:30.174Z,9.65
2023-02-06T02:12:57.425Z,10.93
2023-02-06T02:15:47.043Z,8.77
2023-02-06T02:18:29.047Z,11.07
2023-02-06T02:21:14.242Z,10.23
2023-02-06T02:23:58.465Z,8.75
2023-02-06T02:26:55.284Z,10.02
2023-02-06T02:29:49.148Z,11.35
2023-02-06T02:32:45.664Z,9.38
2023-02-06T02:35:30.152Z,9.02
2023-02-06T02:38:15.545Z,11.93
2023-02-06T02:41:39.715Z,10.63
2023-02-06T02:44:39.307Z,9.05
2023-02-06T02:47:10.311Z,9.95
2023-02-06T02:49:41.651Z,14.57
2023-02-06T02:52:11.594Z,10.25
2023-02-06T02:54:38.522Z,9.75
2023-02-06T02:57:13.378Z,11.45
2023-02-06T02:59:45.822Z,10.52
2023-02-06T03:02:21.470Z,9.63
2023-02-06T03:05:01.802Z,9.55
2023-02-06T03:07:57.965Z,6.78
2023-02-06T03:10:52.755Z,10.35
2023-02-06T03:13:31.828Z,11.73
2023-02-06T03:16:19.437Z,9.75
2023-02-06T03:18:56.044Z,9.05
2023-02-06T03:21:25.278Z,8.60
2023-02-06T03:23:58.045Z,9.90
2023-02-06T03:26:29.841Z,10.38
2023-02-06T03:29:01.197Z,11.20
2023-02-06T03:31:55.543Z,10.13
2023-02-06T03:34:35.190Z,8.85
2023-02-06T03:37:02.160Z,10.25
2023-02-06T03:39:29.815Z,9.35
2023-02-06T03:41:59.419Z,9.95
2023-02-06T03:44:31.780Z,10.52
2023-02-06T03:47:00.746Z,12.38
2023-02-06T03:49:31.174Z,10.88
2023-02-06T03:52:14.951Z,12.50
2023-02-06T03:54:47.751Z,12.18
2023-02-06T03:57:19.408Z,12.73
2023-02-06T03:59:47.152Z,10.27
2023-02-06T04:02:16.258Z,11.82
2023-02-06T04:04:45.559Z,9.07
2023-02-06T04:07:24.898Z,11.65
2023-02-06T04:09:52.612Z,8.57
2023-02-06T04:12:21.785Z,12.05
2023-02-06T04:14:48.911Z,10.32
2023-02-06T04:17:31.360Z,10.90
2023-02-06T04:20:03.876Z,12.32
2023-02-06T04:22:31.054Z,14.00
2023-02-06T04:24:58.027Z,11.73
2023-02-06T04:27:25.027Z,12.38
2023-02-06T04:29:51.933Z,13.57
2023-02-06T04:32:19.042Z,11.25
2023-02-06T04:34:45.937Z,12.40
2023-02-06T04:37:13.002Z,9.35
2023-02-06T04:39:39.992Z,10.43
2023-02-06T04:42:07.923Z,11.25
2023-02-06T04:44:35.082Z,11.45
2023-02-06T04:47:03.337Z,12.93
2023-02-06T04:49:30.528Z,12.13
2023-02-06T04:51:57.719Z,13.52
2023-02-06T04:54:24.688Z,11.60
2023-02-06T04:56:51.852Z,11.57
2023-02-06T04:59:18.881Z,12.27
2023-02-06T05:01:45.988Z,12.75
2023-02-06T05:04:12.965Z,15.60
2023-02-06T05:06:40.148Z,13.30
2023-02-06T05:09:07.408Z,14.65
2023-02-06T05:11:34.386Z,15.55
2023-02-06T05:14:01.391Z,12.70
2023-02-06T05:16:28.752Z,13.88
2023-02-06T05:18:56.624Z,12.07
2023-02-06T05:21:24.937Z,13.38
2023-02-06T05:23:51.922Z,13.73
2023-02-06T05:26:19.437Z,13.43
2023-02-06T05:28:46.420Z,12.43
2023-02-06T05:31:19.900Z,10.98
2023-02-06T05:33:50.488Z,13.70
2023-02-06T05:36:19.532Z,14.70
2023-02-06T05:38:47.902Z,14.90
2023-02-06T05:41:15.938Z,13.25
2023-02-06T05:43:43.324Z,11.73
2023-02-06T05:46:12.945Z,13.82
2023-02-06T05:48:40.814Z,13.27
2023-02-06T05:51:08.011Z,14.57
2023-02-06T05:53:35.237Z,11.73
2023-02-06T05:56:02.567Z,12.65
2023-02-06T05:58:29.697Z,10.88
2023-02-06T06:00:56.838Z,13.77
2023-02-06T06:03:23.830Z,12.90
2023-02-06T06:05:51.085Z,15.70
2023-02-06T06:08:18.076Z,12.93
2023-02-06T06:10:45.016Z,15.02
2023-02-06T06:13:12.081Z,13.30
2023-02-06T06:15:38.995Z,15.82
2023-02-06T06:18:05.949Z,18.48
2023-02-06T06:20:32.887Z,17.63
2023-02-06T06:22:59.821Z,14.50
2023-02-06T06:25:26.876Z,14.52
2023-02-06T06:27:54.146Z,16.63
2023-02-06T06:30:21.497Z,16.08
2023-02-06T06:32:48.464Z,13.27
2023-02-06T06:35:15.614Z,15.80
2023-02-06T06:37:42.593Z,16.05
2023-02-06T06:40:10.176Z,14.98
2023-02-06T06:42:37.485Z,15.10
2023-02-06T06:45:05.449Z,13.80
2023-02-06T06:47:32.497Z,13.68
2023-02-06T06:49:59.449Z,17.90
2023-02-06T06:52:26.686Z,14.70
2023-02-06T06:54:53.833Z,15.13
2023-02-06T06:57:22.057Z,16.92
2023-02-06T06:59:50.175Z,17.90
2023-02-06T07:02:18.156Z,17.48
2023-02-06T07:04:45.220Z,17.30
2023-02-06T07:07:12.346Z,15.65
2023-02-06T07:09:39.450Z,16.42
2023-02-06T07:12:06.766Z,22.23
2023-02-06T07:14:33.674Z,16.50
2023-02-06T07:17:01.821Z,13.40
2023-02-06T07:19:28.826Z,34.35
2023-02-06T07:21:55.882Z,27.30
2023-02-06T07:24:22.816Z,22.70
2023-02-06T07:26:49.799Z,18.65
2023-02-06T07:29:16.764Z,17.02
2023-02-06T07:31:43.853Z,18.77
2023-02-06T07:34:11.077Z,28.65
2023-02-06T07:36:38.263Z,22.98
2023-02-06T07:39:05.345Z,22.63
2023-02-06T07:41:32.446Z,21.70
2023-02-06T07:43:59.428Z,20.02
2023-02-06T07:46:26.668Z,21.35
2023-02-06T07:48:53.724Z,22.50
2023-02-06T07:51:20.964Z,21.33
2023-02-06T07:53:48.500Z,21.00
2023-02-06T07:56:20.375Z,21.05
2023-02-06T07:58:52.447Z,21.08
2023-02-06T08:01:21.100Z,21.98
2023-02-06T08:03:50.863Z,23.67
2023-02-06T08:06:18.676Z,20.98
2023-02-06T08:08:46.432Z,17.98
2023-02-06T08:11:16.483Z,19.92
2023-02-06T08:13:43.914Z,19.02
2023-02-06T08:16:13.744Z,19.02
2023-02-06T08:18:41.245Z,17.52
2023-02-06T08:21:13.147Z,16.63
2023-02-06T08:23:41.113Z,16.10
2023-02-06T08:26:17.153Z,12.20
2023-02-06T08:28:46.582Z,15.13
2023-02-06T08:31:19.672Z,12.30
2023-02-06T08:33:47.407Z,14.77
2023-02-06T08:36:15.806Z,15.05
2023-02-06T08:38:42.973Z,14.85
2023-02-06T08:41:26.408Z,16.38
2023-02-06T08:43:56.400Z,14.43
2023-02-06T08:46:25.611Z,13.35
2023-02-06T08:48:57.002Z,12.43
2023-02-06T08:51:27.919Z,12.27
2023-02-06T08:54:03.514Z,12.48
2023-02-06T08:56:31.655Z,12.20
2023-02-06T08:58:59.863Z,17.00
2023-02-06T09:01:28.561Z,16.52
2023-02-06T09:04:00.456Z,16.02
2023-02-06T09:06:28.709Z,14.65
2023-02-06T09:08:57.342Z,12.75
2023-02-06T09:11:26.008Z,15.40
2023-02-06T09:13:56.150Z,12.63
2023-02-06T09:16:23.585Z,13.35
2023-02-06T09:18:54.206Z,12.80
2023-02-06T09:21:26.018Z,17.67
2023-02-06T09:23:56.650Z,17.17
2023-02-06T09:26:29.247Z,13.57
2023-02-06T09:28:58.686Z,16.65
2023-02-06T09:31:27.212Z,19.20
2023-02-06T09:33:54.644Z,20.85
2023-02-06T09:36:22.528Z,21.05
2023-02-06T09:38:53.651Z,22.10
2023-02-06T09:41:32.409Z,25.10
2023-02-06T09:44:09.383Z,25.65
2023-02-06T09:46:43.307Z,23.45
2023-02-06T09:49:28.172Z,22.23
2023-02-06T09:52:26.325Z,22.13
2023-02-06T09:55:25.767Z,22.02
2023-02-06T09:58:11.288Z,18.13
2023-02-06T10:00:42.218Z,16.67
2023-02-06T10:03:34.807Z,14.05
2023-02-06T10:06:20.228Z,14.98
2023-02-06T10:08:59.172Z,16.08
2023-02-06T10:11:48.490Z,16.83
2023-02-06T10:14:28.281Z,13.70
2023-02-06T10:17:01.221Z,16.77
2023-02-06T10:19:37.419Z,16.23
2023-02-06T10:22:15.736Z,15.52
2023-02-06T10:25:11.764Z,15.90
2023-02-06T10:27:43.034Z,14.43
2023-02-06T10:30:18.744Z,14.65
2023-02-06T10:33:06.460Z,15.25
2023-02-06T10:35:41.095Z,15.77
2023-02-06T10:38:33.503Z,14.50
2023-02-06T10:41:32.319Z,14.52
2023-02-06T10:44:23.067Z,17.35
2023-02-06T10:46:53.618Z,14.93
2023-02-06T10:49:37.792Z,16.50
2023-02-06T10:52:15.093Z,14.90
2023-02-06T10:54:52.304Z,13.57
2023-02-06T10:57:25.135Z,15.60
2023-02-06T10:59:55.813Z,15.18
2023-02-06T11:02:38.828Z,13.15
2023-02-06T11:05:23.753Z,13.35
2023-02-06T11:07:54.740Z,16.00
2023-02-06T11:10:24.372Z,14.23
2023-02-06T11:13:11.014Z,13.63
2023-02-06T11:16:16.807Z,13.05
2023-02-06T11:18:46.566Z,12.52
2023-02-06T11:21:15.626Z,14.60
2023-02-06T11:23:42.861Z,12.85
2023-02-06T11:26:19.905Z,14.35
2023-02-06T11:28:52.792Z,14.45
2023-02-06T11:31:36.343Z,13.07
2023-02-06T11:34:04.750Z,11.73
2023-02-06T11:36:35.447Z,10.77
2023-02-06T11:39:20.512Z,11.35
2023-02-06T11:42:18.985Z,12.98
2023-02-06T11:44:48.692Z,12.95
2023-02-06T11:47:37.553Z,12.32
2023-02-06T11:50:20.462Z,11.45
2023-02-06T11:52:47.709Z,16.05
2023-02-06T11:55:25.917Z,11.57
2023-02-06T11:58:12.985Z,13.63
2023-02-06T12:00:42.324Z,11.50
2023-02-06T12:03:39.245Z,11.57
2023-02-06T12:08:53.473Z,12.30
2023-02-06T12:11:26.103Z,10.68
2023-02-06T12:13:58.510Z,10.57
2023-02-06T12:16:25.687Z,11.63
2023-02-06T12:18:57.310Z,8.75
2023-02-06T12:21:44.385Z,11.15
2023-02-06T12:24:35.089Z,9.95
2023-02-06T12:27:43.394Z,11.25
2023-02-06T12:30:29.049Z,10.00
2023-02-06T12:33:15.950Z,7.57
2023-02-06T12:35:46.496Z,9.68
2023-02-06T12:38:30.204Z,10.60
2023-02-06T12:41:12.464Z,9.18
2023-02-06T12:43:42.256Z,10.27
2023-02-06T12:46:18.759Z,8.35
2023-02-06T12:48:49.618Z,10.23
2023-02-06T12:51:36.343Z,12.48
2023-02-06T12:54:12.557Z,9.70
2023-02-06T12:56:58.528Z,9.35
2023-02-06T13:00:18.425Z,9.50
2023-02-06T13:03:18.069Z,9.55
2023-02-06T13:05:49.656Z,10.15
2023-02-06T13:08:19.690Z,9.23
2023-02-06T13:10:59.677Z,12.20
2023-02-06T13:13:27.018Z,11.25
2023-02-06T13:15:56.639Z,9.30
2023-02-06T13:18:42.089Z,11.90
2023-02-06T13:21:34.012Z,8.88
2023-02-06T13:24:03.993Z,10.15
2023-02-06T13:26:46.369Z,16.15
2023-02-06T13:29:27.582Z,21.70
2023-02-06T13:32:12.928Z,17.55
2023-02-06T13:34:46.959Z,14.57
2023-02-06T13:37:40.728Z,24.80
2023-02-06T13:40:30.855Z,28.25
2023-02-06T13:43:19.771Z,36.95
2023-02-06T13:45:59.419Z,30.77
2023-02-06T13:48:46.830Z,30.05
2023-02-06T13:51:23.587Z,19.50
2023-02-06T13:54:32.094Z,26.45
2023-02-06T13:57:20.980Z,30.30
2023-02-06T14:00:13.849Z,18.52
2023-02-06T14:03:10.517Z,15.90
2023-02-06T14:05:51.616Z,14.30
2023-02-06T14:08:22.532Z,20.45
2023-02-06T14:11:20.266Z,14.02
2023-02-06T14:13:50.318Z,12.73
2023-02-06T14:16:44.346Z,16.90
2023-02-06T14:19:35.487Z,11.75
2023-02-06T14:22:20.771Z,11.50
2023-02-06T14:25:15.981Z,9.18
2023-02-06T14:28:14.135Z,11.68
2023-02-06T14:30:56.167Z,8.43
2023-02-06T14:33:59.778Z,8.77
2023-02-06T14:36:32.652Z,9.40
2023-02-06T14:39:28.587Z,9.43
2023-02-06T14:41:55.924Z,11.80
2023-02-06T14:44:28.678Z,7.20
2023-02-06T14:46:56.688Z,8.60
2023-02-06T14:49:35.567Z,12.82
2023-02-06T14:52:04.190Z,9.98
2023-02-06T14:54:38.522Z,8.65
2023-02-06T14:57:16.530Z,8.65
2023-02-06T14:59:52.070Z,7.82
2023-02-06T15:02:25.683Z,10.07
2023-02-06T15:04:52.858Z,10.40
2023-02-06T15:07:28.475Z,13.15
2023-02-06T15:10:14.105Z,11.30
2023-02-06T15:12:41.897Z,10.35
2023-02-06T15:15:21.610Z,11.88
2023-02-06T15:18:00.620Z,9.40
2023-02-06T15:20:29.489Z,8.52
2023-02-06T15:23:11.649Z,7.82
2023-02-06T15:25:55.956Z,8.82
2023-02-06T15:28:26.893Z,8.27
2023-02-06T15:30:56.791Z,8.48
2023-02-06T15:33:28.360Z,7.18
2023-02-06T15:35:57.693Z,9.20
2023-02-06T15:38:27.275Z,60.42
2023-02-06T15:41:02.391Z,44.20
2023-02-06T15:43:30.050Z,23.20
2023-02-06T15:45:59.976Z,13.80
2023-02-06T15:48:49.810Z,14.00
2023-02-06T15:51:29.264Z,9.73
2023-02-06T15:54:19.637Z,9.52
2023-02-06T15:57:00.562Z,9.18
2023-02-06T15:59:28.617Z,10.15
2023-02-06T16:01:58.160Z,7.05
2023-02-06T16:04:39.754Z,6.47
2023-02-06T16:07:19.870Z,7.40
2023-02-06T16:09:53.069Z,8.63
2023-02-06T16:12:21.447Z,10.18
2023-02-06T16:14:59.134Z,7.95
2023-02-06T16:17:36.313Z,8.95
2023-02-06T16:20:07.767Z,16.38
2023-02-06T16:22:38.357Z,13.68
2023-02-06T16:25:28.912Z,17.10
2023-02-06T16:27:56.492Z,11.73
2023-02-06T16:30:33.012Z,8.43
2023-02-06T16:33:09.658Z,8.77
2023-02-06T16:35:36.719Z,12.32
2023-02-06T16:38:03.569Z,8.85
2023-02-06T16:40:30.652Z,8.45
2023-02-06T16:42:57.700Z,9.40
2023-02-06T16:45:27.511Z,11.23
2023-02-06T16:47:54.938Z,13.10
2023-02-06T16:50:22.575Z,16.05
2023-02-06T16:52:57.986Z,12.23
2023-02-06T16:55:26.501Z,12.00
2023-02-06T16:57:56.852Z,9.52
2023-02-06T17:00:29.461Z,10.00
2023-02-06T17:02:58.627Z,9.95
2023-02-06T17:05:28.298Z,11.77
2023-02-06T17:07:55.590Z,11.35
2023-02-06T17:10:25.672Z,9.90
2023-02-06T17:12:53.175Z,10.90
2023-02-06T17:15:20.581Z,11.50
2023-02-06T17:17:47.691Z,11.38
2023-02-06T17:20:37.245Z,10.20
2023-02-06T17:23:05.313Z,10.98
2023-02-06T17:25:32.869Z,8.32
2023-02-06T17:28:00.430Z,9.27
2023-02-06T17:30:27.993Z,10.23
2023-02-06T17:32:56.345Z,10.38
2023-02-06T17:35:23.374Z,8.85
2023-02-06T17:37:51.739Z,10.82
2023-02-06T17:40:28.733Z,9.70
2023-02-06T17:42:57.010Z,10.23
2023-02-06T17:45:24.283Z,11.13
2023-02-06T17:47:52.036Z,9.15
2023-02-06T17:50:21.470Z,8.18
2023-02-06T17:52:49.332Z,9.30
2023-02-06T17:55:16.811Z,7.95
2023-02-06T17:57:43.818Z,8.93
2023-02-06T18:00:15.523Z,9.15
2023-02-06T18:02:43.617Z,11.23
2023-02-06T18:05:11.456Z,17.42
2023-02-06T18:07:39.291Z,11.60
2023-02-06T18:10:07.509Z,11.45
2023-02-06T18:12:35.126Z,11.75
2023-02-06T18:15:02.223Z,11.48
2023-02-06T18:17:29.692Z,17.00
2023-02-06T18:19:57.364Z,13.43
2023-02-06T18:22:24.496Z,14.85
2023-02-06T18:24:51.644Z,19.95
2023-02-06T18:27:19.949Z,13.35
2023-02-06T18:29:50.324Z,16.10
2023-02-06T18:32:19.433Z,16.20
2023-02-06T18:34:46.626Z,13.40
2023-02-06T18:37:13.887Z,13.52
2023-02-06T18:39:40.954Z,14.10
2023-02-06T18:42:26.609Z,14.50
2023-02-06T18:44:53.683Z,11.60
2023-02-06T18:47:20.784Z,14.85
2023-02-06T18:49:47.874Z,14.52
2023-02-06T18:52:15.031Z,13.60
2023-02-06T18:54:42.709Z,15.30
2023-02-06T18:57:10.000Z,16.77
2023-02-06T18:59:37.088Z,12.20
2023-02-06T19:02:04.316Z,14.57
2023-02-06T19:04:31.580Z,15.07
2023-02-06T19:06:58.641Z,14.45
2023-02-06T19:09:25.844Z,20.02
2023-02-06T19:11:53.031Z,18.73
2023-02-06T19:14:22.649Z,18.65
2023-02-06T19:16:51.684Z,16.92
2023-02-06T19:19:18.910Z,16.20
2023-02-06T19:21:46.204Z,16.25
2023-02-06T19:24:20.264Z,14.52
2023-02-06T19:26:47.195Z,12.15
2023-02-06T19:29:19.345Z,15.88
2023-02-06T19:31:51.226Z,16.23
2023-02-06T19:34:18.246Z,13.50
2023-02-06T19:36:45.479Z,15.10
2023-02-06T19:39:13.747Z,16.50
2023-02-06T19:41:40.909Z,18.35
2023-02-06T19:44:11.243Z,18.10
2023-02-06T19:46:39.784Z,18.35
2023-02-06T19:49:08.743Z,18.80
2023-02-06T19:51:40.186Z,18.33
2023-02-06T19:54:07.531Z,20.95
2023-02-06T19:56:40.364Z,18.15
2023-02-06T19:59:18.018Z,20.70
2023-02-06T20:01:50.518Z,17.98
2023-02-06T20:04:18.528Z,17.83
2023-02-06T20:06:45.596Z,18.27
2023-02-06T20:09:14.791Z,15.68
2023-02-06T20:11:42.730Z,35.75
2023-02-06T20:14:10.494Z,53.20
2023-02-06T20:16:39.313Z,46.90
2023-02-06T20:19:08.883Z,39.20
2023-02-06T20:21:39.313Z,30.45
2023-02-06T20:24:09.032Z,33.25
2023-02-06T20:26:38.805Z,29.77
2023-02-06T20:29:07.738Z,29.15
2023-02-06T20:31:35.758Z,32.90
2023-02-06T20:34:03.188Z,28.92
2023-02-06T20:36:30.266Z,28.10
2023-02-06T20:38:59.387Z,24.40
2023-02-06T20:41:29.716Z,20.55
2023-02-06T20:43:58.098Z,20.45
2023-02-06T20:46:26.452Z,18.95
2023-02-06T20:48:59.399Z,18.20
2023-02-06T20:51:27.257Z,20.67
2023-02-06T20:53:54.697Z,20.85
2023-02-06T20:56:22.790Z,27.67
2023-02-06T20:58:51.313Z,18.83
2023-02-06T21:01:30.804Z,19.25
2023-02-06T21:04:03.978Z,19.63
2023-02-06T21:06:31.700Z,16.85
2023-02-06T21:09:01.589Z,20.27
2023-02-06T21:11:30.782Z,19.27
2023-02-06T21:14:00.233Z,19.13
2023-02-06T21:16:28.713Z,17.73
2023-02-06T21:18:57.432Z,18.77
2023-02-06T21:21:26.312Z,18.35
2023-02-06T21:23:55.940Z,21.15
2023-02-06T21:26:23.968Z,22.20
2023-02-06T21:28:51.857Z,20.35
2023-02-06T21:31:25.136Z,22.58
2023-02-06T21:33:52.694Z,25.42
2023-02-06T21:36:21.286Z,22.55
2023-02-06T21:38:48.435Z,19.63
2023-02-06T21:41:18.935Z,18.40
2023-02-06T21:43:46.557Z,21.67
2023-02-06T21:46:14.215Z,20.35
2023-02-06T21:48:42.655Z,19.40
2023-02-06T21:51:15.175Z,18.88
2023-02-06T21:53:43.435Z,32.90
2023-02-06T21:56:22.966Z,21.98
2023-02-06T21:58:50.595Z,21.90
2023-02-06T22:01:26.402Z,21.88
2023-02-06T22:03:54.113Z,20.70
2023-02-06T22:06:21.513Z,20.50
2023-02-06T22:08:53.623Z,19.05
2023-02-06T22:11:26.117Z,21.17
2023-02-06T22:13:56.988Z,19.98
2023-02-06T22:16:24.604Z,20.05
2023-02-06T22:18:52.045Z,20.52
2023-02-06T22:21:25.362Z,17.80
2023-02-06T22:23:55.435Z,19.23
2023-02-06T22:26:22.400Z,17.30
2023-02-06T22:28:49.977Z,20.08
2023-02-06T22:31:28.866Z,18.67
2023-02-06T22:33:56.938Z,20.23
2023-02-06T22:36:27.914Z,17.02
2023-02-06T22:39:04.530Z,17.80
2023-02-06T22:41:31.546Z,18.55
2023-02-06T22:43:58.795Z,18.45
2023-02-06T22:46:32.627Z,18.08
2023-02-06T22:49:00.479Z,16.63
2023-02-06T22:51:28.147Z,18.45
2023-02-06T22:53:55.571Z,18.98
2023-02-06T22:56:29.479Z,20.50
2023-02-06T22:59:06.054Z,21.05
2023-02-06T23:01:59.606Z,21.20
2023-02-06T23:04:30.155Z,21.38
2023-02-06T23:06:57.672Z,16.45
2023-02-06T23:09:27.428Z,18.70
2023-02-06T23:11:55.565Z,19.20
2023-02-06T23:14:22.555Z,19.55
2023-02-06T23:16:49.644Z,15.38
2023-02-06T23:19:17.506Z,20.00
2023-02-06T23:21:46.501Z,20.33
2023-02-06T23:24:14.794Z,23.42
2023-02-06T23:26:43.999Z,18.25
2023-02-06T23:29:15.744Z,20.98
2023-02-06T23:31:43.579Z,17.92
2023-02-06T23:34:10.913Z,19.65
2023-02-06T23:36:37.986Z,20.38
2023-02-06T23:39:05.276Z,19.85
2023-02-06T23:41:33.591Z,21.52
2023-02-06T23:44:02.947Z,21.83
2023-02-06T23:46:31.617Z,20.75
2023-02-06T23:48:58.822Z,24.67
2023-02-06T23:51:26.356Z,23.58
2023-02-06T23:53:53.599Z,20.00
2023-02-06T23:56:24.476Z,21.00
2023-02-06T23:58:52.640Z,23.08
